Time;durP1;ratioP1;P1;durP2;ratioP2;P2;SDS_P1;SDS_P2;PMS_P1;PMS_P2;Temp;Humidity;BMP_temperature;BMP_pressure;BME280_temperature;BME280_humidity;BME280_pressure;Samples;Min_cycle;Max_cycle;Signal;HPM_P1;HPM_P2
2022/08/10 00:01:49;;;;;;;2.00;1.00;;;23.90;81.20;;;;;;5118908;28;20224;-40
2022/08/10 00:04:20;;;;;;;2.40;1.30;;;23.80;81.30;;;;;;5123081;28;20594;-40
2022/08/10 00:06:53;;;;;;;2.70;1.05;;;23.80;81.10;;;;;;5118355;28;20308;-41
2022/08/10 00:09:22;;;;;;;1.98;1.00;;;23.80;81.30;;;;;;5128101;28;20194;-41
2022/08/10 00:11:49;;;;;;;2.35;1.17;;;23.80;81.80;;;;;;5106213;28;20232;-43
2022/08/10 00:14:17;;;;;;;6.43;1.00;;;23.70;81.20;;;;;;5098307;28;20229;-43
2022/08/10 00:16:47;;;;;;;2.33;1.00;;;23.70;81.30;;;;;;5109082;28;20210;-43
2022/08/10 00:19:14;;;;;;;1.33;1.20;;;23.70;81.70;;;;;;5096739;28;20206;-44
2022/08/10 00:21:43;;;;;;;1.45;1.10;;;23.70;82.20;;;;;;5123051;28;20217;-41
2022/08/10 00:24:11;;;;;;;1.77;1.10;;;23.70;81.90;;;;;;5118010;28;20201;-40
2022/08/10 00:26:38;;;;;;;1.00;0.90;;;23.60;81.40;;;;;;5090229;28;20734;-41
2022/08/10 00:29:25;;;;;;;2.15;1.10;;;23.60;81.40;;;;;;5106711;28;20282;-41
2022/08/10 00:31:55;;;;;;;2.00;1.30;;;23.50;83.60;;;;;;5104547;28;20308;-40
2022/08/10 00:34:27;;;;;;;2.80;1.10;;;23.50;82.20;;;;;;5107738;28;20562;-40
2022/08/10 00:36:55;;;;;;;1.27;1.17;;;23.40;82.50;;;;;;5115208;28;20202;-40
2022/08/10 00:39:22;;;;;;;2.08;1.13;;;23.40;82.90;;;;;;5107469;28;20202;-41
2022/08/10 00:41:50;;;;;;;1.25;1.15;;;23.30;82.50;;;;;;5117264;28;20308;-40
2022/08/10 00:44:35;;;;;;;1.30;1.20;;;23.20;82.50;;;;;;5117053;28;20312;-41
2022/08/10 00:47:03;;;;;;;1.13;1.02;;;23.20;82.90;;;;;;5117243;27;20202;-40
2022/08/10 00:49:32;;;;;;;2.38;1.05;;;23.20;82.40;;;;;;5118982;27;20223;-40
2022/08/10 00:52:01;;;;;;;2.60;1.23;;;23.10;83.20;;;;;;5117627;27;20214;-46
2022/08/10 00:54:29;;;;;;;3.17;1.23;;;23.10;83.60;;;;;;5111997;27;20204;-40
2022/08/10 00:56:57;;;;;;;1.65;1.10;;;23.10;83.20;;;;;;5117175;27;20226;-41
2022/08/10 00:59:43;;;;;;;1.60;1.23;;;23.00;83.30;;;;;;5119411;27;20235;-41
2022/08/10 01:02:30;;;;;;;2.05;1.25;;;23.00;82.80;;;;;;5118458;27;20226;-41
2022/08/10 01:05:02;;;;;;;3.00;1.05;;;22.90;83.30;;;;;;5111459;27;20198;-41
2022/08/10 01:07:48;;;;;;;2.88;1.00;;;22.90;83.40;;;;;;5094302;28;20606;-40
2022/08/10 01:10:27;;;;;;;1.13;1.02;;;22.80;84.10;;;;;;5114786;27;20232;-41
2022/08/10 01:13:12;;;;;;;1.63;1.08;;;22.80;83.40;;;;;;5111357;27;20295;-40
2022/08/10 01:16:03;;;;;;;1.52;1.08;;;22.70;84.00;;;;;;5098884;27;20247;-40
2022/08/10 01:18:52;;;;;;;4.07;1.17;;;22.70;83.40;;;;;;5123724;27;20257;-40
2022/08/10 01:21:46;;;;;;;1.08;1.00;;;22.70;83.00;;;;;;5096615;27;20729;-40
2022/08/10 01:24:33;;;;;;;2.05;1.20;;;22.70;84.10;;;;;;5114015;27;20297;-40
2022/08/10 01:27:06;;;;;;;2.25;1.23;;;22.60;83.30;;;;;;5112980;27;20198;-40
2022/08/10 01:29:55;;;;;;;1.50;1.15;;;22.60;83.70;;;;;;5118496;27;20198;-40
2022/08/10 01:32:36;;;;;;;3.25;1.23;;;22.60;83.60;;;;;;5122281;27;20586;-40
2022/08/10 01:35:23;;;;;;;1.13;1.02;;;22.50;83.50;;;;;;5118000;27;20206;-40
2022/08/10 01:38:21;;;;;;;2.28;1.55;;;22.50;83.70;;;;;;5113760;27;20209;-41
2022/08/10 01:40:54;;;;;;;1.50;1.23;;;22.50;83.40;;;;;;5110215;27;20214;-40
2022/08/10 01:43:27;;;;;;;1.85;1.10;;;22.40;83.10;;;;;;5116877;27;20910;-40
2022/08/10 01:45:58;;;;;;;1.08;1.02;;;22.40;83.80;;;;;;5133549;27;20204;-40
2022/08/10 01:48:33;;;;;;;1.65;1.00;;;22.40;83.30;;;;;;5116175;27;20235;-41
2022/08/10 01:51:22;;;;;;;1.48;1.10;;;22.40;83.40;;;;;;5102401;28;20204;-41
2022/08/10 01:53:55;;;;;;;1.65;1.20;;;22.40;84.70;;;;;;5127868;27;20209;-41
2022/08/10 01:56:25;;;;;;;3.10;1.30;;;22.40;84.50;;;;;;5126617;27;20209;-40
2022/08/10 01:58:58;;;;;;;1.67;1.20;;;22.40;85.00;;;;;;5108947;27;20233;-40
2022/08/10 02:01:31;;;;;;;2.10;1.50;;;22.40;85.10;;;;;;5122161;27;20277;-45
2022/08/10 02:04:08;;;;;;;2.10;1.30;;;22.30;84.20;;;;;;5124486;27;20221;-45
2022/08/10 02:06:44;;;;;;;1.17;1.02;;;22.30;84.30;;;;;;5111178;27;20241;-45
2022/08/10 02:09:15;;;;;;;2.20;1.10;;;22.20;84.00;;;;;;5120249;27;20650;-45
2022/08/10 02:11:43;;;;;;;1.20;1.10;;;22.20;84.30;;;;;;5121793;27;20237;-40
2022/08/10 02:14:34;;;;;;;1.75;1.35;;;22.20;84.50;;;;;;5120106;27;20214;-41
2022/08/10 02:17:09;;;;;;;1.50;1.30;;;22.10;84.90;;;;;;5091404;27;20756;-41
2022/08/10 02:20:06;;;;;;;2.50;1.30;;;22.10;84.90;;;;;;5109789;27;20198;-40
2022/08/10 02:22:34;;;;;;;3.95;1.23;;;22.10;84.70;;;;;;5117884;27;20246;-40
2022/08/10 02:25:16;;;;;;;2.33;1.48;;;22.10;84.50;;;;;;5121705;27;20205;-40
2022/08/10 02:28:05;;;;;;;1.50;1.17;;;22.00;85.10;;;;;;5109990;27;20190;-40
2022/08/10 02:30:33;;;;;;;1.50;1.40;;;22.00;84.70;;;;;;5116871;27;21025;-41
2022/08/10 02:33:00;;;;;;;2.00;1.20;;;22.00;84.60;;;;;;5114966;27;20563;-40
2022/08/10 02:35:29;;;;;;;1.40;1.30;;;22.00;84.60;;;;;;5112706;27;20208;-41
2022/08/10 02:38:20;;;;;;;2.88;1.65;;;22.00;84.60;;;;;;5105085;27;20833;-40
2022/08/10 02:40:56;;;;;;;1.90;1.40;;;21.90;84.60;;;;;;5108452;27;20737;-41
2022/08/10 02:44:00;;;;;;;2.83;1.50;;;21.90;84.90;;;;;;5100373;27;20217;-41
2022/08/10 02:47:00;;;;;;;2.22;1.60;;;21.80;85.20;;;;;;5115609;27;20200;-40
2022/08/10 02:49:44;;;;;;;2.45;1.40;;;21.80;85.00;;;;;;5119635;27;20739;-41
2022/08/10 02:52:23;;;;;;;1.50;1.40;;;21.80;85.30;;;;;;5107621;27;20664;-41
2022/08/10 02:54:57;;;;;;;3.75;1.60;;;21.80;85.40;;;;;;5126061;27;20251;-40
2022/08/10 02:57:36;;;;;;;4.90;1.30;;;21.80;85.50;;;;;;5119457;27;20222;-40
2022/08/10 03:00:24;;;;;;;3.38;1.52;;;21.80;85.70;;;;;;5121258;27;20278;-40
2022/08/10 03:02:57;;;;;;;4.43;1.60;;;21.80;85.70;;;;;;5110129;27;20221;-40
2022/08/10 03:05:30;;;;;;;1.42;1.33;;;21.70;85.30;;;;;;5106585;27;20274;-41
2022/08/10 03:08:05;;;;;;;3.90;1.48;;;21.70;85.00;;;;;;5111512;27;20360;-40
2022/08/10 03:10:42;;;;;;;2.10;1.13;;;21.60;86.00;;;;;;5125949;27;20289;-41
2022/08/10 03:13:11;;;;;;;1.92;1.48;;;21.60;85.40;;;;;;5117353;27;20201;-41
2022/08/10 03:15:42;;;;;;;2.15;1.48;;;21.60;85.40;;;;;;5077906;28;20218;-41
2022/08/10 03:18:11;;;;;;;2.50;1.48;;;21.60;86.30;;;;;;5120082;27;20221;-40
2022/08/10 03:20:40;;;;;;;1.60;1.50;;;21.60;85.60;;;;;;5124948;27;20258;-40
2022/08/10 03:23:17;;;;;;;2.33;1.63;;;21.50;85.60;;;;;;5115079;27;20834;-40
2022/08/10 03:25:47;;;;;;;2.45;1.58;;;21.50;85.90;;;;;;5108861;28;20209;-40
2022/08/10 03:28:26;;;;;;;3.28;1.60;;;21.50;85.80;;;;;;5109224;28;20198;-41
2022/08/10 03:30:56;;;;;;;2.10;1.55;;;21.40;85.90;;;;;;5116895;27;20605;-41
2022/08/10 03:33:26;;;;;;;2.38;1.77;;;21.40;85.50;;;;;;5108782;28;20309;-40
2022/08/10 03:35:54;;;;;;;3.08;1.80;;;21.40;85.90;;;;;;5115197;27;20233;-47
2022/08/10 03:38:44;;;;;;;2.28;1.40;;;21.40;85.90;;;;;;5093798;28;20677;-46
2022/08/10 03:41:14;;;;;;;3.30;1.60;;;21.40;86.50;;;;;;5123702;28;20207;-45
2022/08/10 03:43:46;;;;;;;2.25;1.60;;;21.40;86.10;;;;;;5111927;28;20747;-40
2022/08/10 03:46:18;;;;;;;2.53;2.10;;;21.30;86.00;;;;;;5110718;27;20216;-40
2022/08/10 03:48:48;;;;;;;2.03;1.83;;;21.30;85.90;;;;;;5115986;28;20205;-41
2022/08/10 03:51:20;;;;;;;2.22;1.70;;;21.30;86.00;;;;;;5107398;28;20349;-41
2022/08/10 03:53:48;;;;;;;2.47;1.85;;;21.30;86.20;;;;;;5108031;27;20233;-40
2022/08/10 03:56:36;;;;;;;2.10;1.90;;;21.30;86.20;;;;;;5117025;28;20875;-40
2022/08/10 03:59:10;;;;;;;3.60;2.10;;;21.30;86.40;;;;;;5095339;28;20260;-40
2022/08/10 04:01:37;;;;;;;3.00;2.40;;;21.30;86.40;;;;;;5097851;28;20271;-41
2022/08/10 04:04:25;;;;;;;2.35;2.13;;;21.30;87.00;;;;;;5106106;28;20221;-40
2022/08/10 04:06:55;;;;;;;2.65;2.08;;;21.20;87.00;;;;;;5120922;28;20206;-41
2022/08/10 04:09:30;;;;;;;2.45;1.88;;;21.20;86.30;;;;;;5120624;28;20221;-40
2022/08/10 04:12:18;;;;;;;3.75;2.20;;;21.20;86.60;;;;;;5108054;28;20206;-40
2022/08/10 04:14:49;;;;;;;2.38;2.17;;;21.20;86.80;;;;;;5110201;28;20267;-41
2022/08/10 04:17:24;;;;;;;2.22;1.90;;;21.20;87.10;;;;;;5112050;28;20217;-41
2022/08/10 04:20:23;;;;;;;2.20;2.00;;;21.10;86.80;;;;;;5116822;28;20202;-41
2022/08/10 04:22:52;;;;;;;3.88;1.85;;;21.10;86.80;;;;;;5115176;27;20669;-41
2022/08/10 04:25:22;;;;;;;2.95;1.98;;;21.10;86.50;;;;;;5111659;27;20190;-40
2022/08/10 04:27:53;;;;;;;3.03;1.70;;;21.10;87.00;;;;;;5121752;27;20205;-41
2022/08/10 04:30:21;;;;;;;2.20;1.88;;;21.00;86.80;;;;;;5123479;27;20722;-41
2022/08/10 04:32:52;;;;;;;2.72;2.08;;;21.00;87.70;;;;;;5117081;27;20240;-40
2022/08/10 04:35:21;;;;;;;2.40;2.20;;;21.00;87.00;;;;;;5125816;27;20216;-40
2022/08/10 04:37:52;;;;;;;2.70;2.03;;;21.00;87.00;;;;;;5123592;27;20209;-41
2022/08/10 04:40:20;;;;;;;2.60;1.95;;;21.00;87.20;;;;;;5112109;28;20309;-40
2022/08/10 04:43:00;;;;;;;3.50;2.30;;;21.00;87.30;;;;;;5119951;27;20217;-41
2022/08/10 04:45:36;;;;;;;3.80;2.47;;;21.00;87.50;;;;;;5122807;27;20791;-47
2022/08/10 04:48:26;;;;;;;2.70;2.00;;;20.90;87.40;;;;;;5117027;27;20684;-45
2022/08/10 04:51:14;;;;;;;2.72;2.05;;;20.90;87.30;;;;;;5115101;27;20950;-45
2022/08/10 04:53:50;;;;;;;2.17;1.90;;;20.90;88.10;;;;;;5107604;27;20753;-46
2022/08/10 04:56:38;;;;;;;3.55;1.90;;;20.90;87.30;;;;;;5120966;27;20199;-46
2022/08/10 04:59:07;;;;;;;3.83;2.28;;;20.90;87.50;;;;;;5120149;27;20274;-46
2022/08/10 05:01:37;;;;;;;5.18;1.98;;;20.90;87.80;;;;;;5106418;27;20214;-47
2022/08/10 05:04:26;;;;;;;2.67;2.47;;;20.90;88.10;;;;;;5112446;27;20225;-45
2022/08/10 05:07:14;;;;;;;2.67;2.20;;;20.90;88.50;;;;;;5111383;27;20701;-46
2022/08/10 05:09:46;;;;;;;3.92;2.50;;;20.90;88.40;;;;;;5110867;27;20695;-47
2022/08/10 05:12:35;;;;;;;2.42;2.10;;;20.90;88.60;;;;;;5101484;27;20241;-45
2022/08/10 05:15:11;;;;;;;6.93;2.58;;;20.90;88.00;;;;;;5117782;27;20259;-47
2022/08/10 05:17:41;;;;;;;2.88;2.05;;;20.80;88.20;;;;;;5116350;27;20208;-46
2022/08/10 05:20:29;;;;;;;4.32;2.22;;;20.90;88.20;;;;;;5119065;27;20655;-47
2022/08/10 05:22:59;;;;;;;3.60;2.40;;;20.80;88.20;;;;;;5095213;27;20190;-46
2022/08/10 05:25:29;;;;;;;5.30;2.50;;;20.80;88.20;;;;;;5123590;27;20246;-45
2022/08/10 05:28:03;;;;;;;3.08;2.70;;;20.80;88.50;;;;;;5116595;27;20201;-45
2022/08/10 05:30:35;;;;;;;3.80;2.50;;;20.80;88.80;;;;;;5123000;27;20215;-46
2022/08/10 05:33:06;;;;;;;3.30;2.33;;;20.80;88.80;;;;;;5101699;27;20928;-45
2022/08/10 05:35:37;;;;;;;6.03;2.25;;;20.80;88.40;;;;;;5109118;27;20226;-45
2022/08/10 05:38:26;;;;;;;3.92;2.13;;;20.70;88.60;;;;;;5124246;27;20214;-46
2022/08/10 05:40:54;;;;;;;3.33;2.80;;;20.70;88.50;;;;;;5129671;27;20193;-47
2022/08/10 05:43:23;;;;;;;3.75;2.63;;;20.70;88.90;;;;;;5108855;27;20210;-47
2022/08/10 05:45:51;;;;;;;4.38;3.50;;;20.80;89.10;;;;;;5118999;27;20203;-46
2022/08/10 05:48:42;;;;;;;4.82;3.20;;;20.80;88.80;;;;;;5111867;27;20198;-45
2022/08/10 05:51:27;;;;;;;4.30;2.95;;;20.80;89.00;;;;;;5097183;27;20198;-46
2022/08/10 05:53:55;;;;;;;4.93;3.08;;;20.70;88.90;;;;;;5122409;27;20915;-47
2022/08/10 05:56:35;;;;;;;5.75;2.97;;;20.70;88.90;;;;;;5112038;27;20316;-46
2022/08/10 05:59:35;;;;;;;4.47;3.00;;;20.80;89.70;;;;;;5121449;27;20322;-48
2022/08/10 06:02:31;;;;;;;5.10;3.40;;;20.80;89.30;;;;;;5141347;27;20277;-46
2022/08/10 06:05:12;;;;;;;6.50;3.47;;;20.80;89.50;;;;;;5116673;27;20230;-41
2022/08/10 06:07:46;;;;;;;5.38;3.67;;;20.80;89.80;;;;;;5125873;27;20394;-40
2022/08/10 06:10:15;;;;;;;6.53;3.95;;;20.80;90.00;;;;;;5110848;27;20203;-46
2022/08/10 06:16:12;;;;;;;6.93;3.97;;;20.80;90.00;;;;;;5124945;27;20208;-46
2022/08/10 06:18:40;;;;;;;7.93;3.70;;;20.90;89.90;;;;;;5112379;27;20247;-45
2022/08/10 06:21:15;;;;;;;7.68;3.60;;;20.90;89.90;;;;;;5109658;28;20276;-46
2022/08/10 06:23:43;;;;;;;6.22;3.65;;;21.00;90.00;;;;;;5109046;28;20221;-45
2022/08/10 06:26:10;;;;;;;8.60;3.65;;;21.00;90.00;;;;;;5114172;27;20194;-45
2022/08/10 06:28:49;;;;;;;5.85;4.15;;;21.00;90.00;;;;;;5111937;27;20202;-45
2022/08/10 06:31:31;;;;;;;5.22;3.50;;;21.10;90.20;;;;;;5129602;27;20613;-45
2022/08/10 06:34:25;;;;;;;5.80;3.47;;;21.20;90.10;;;;;;5126986;27;20980;-44
2022/08/10 06:36:54;;;;;;;5.15;4.20;;;21.30;90.20;;;;;;5110951;27;20200;-45
2022/08/10 06:39:24;;;;;;;8.95;4.95;;;21.30;90.60;;;;;;5110250;28;20194;-46
2022/08/10 06:42:11;;;;;;;4.90;4.45;;;21.30;90.80;;;;;;5101468;27;20205;-46
2022/08/10 06:44:52;;;;;;;5.28;4.28;;;21.30;91.00;;;;;;5109098;27;20668;-46
2022/08/10 06:47:24;;;;;;;7.03;4.20;;;21.40;90.70;;;;;;5124501;27;20181;-46
2022/08/10 06:49:55;;;;;;;6.97;3.58;;;21.40;90.70;;;;;;5123941;27;20214;-40
2022/08/10 06:52:32;;;;;;;4.18;3.60;;;21.40;90.60;;;;;;5121857;27;20189;-40
2022/08/10 06:55:01;;;;;;;5.07;3.97;;;21.40;90.70;;;;;;5117372;27;20206;-40
2022/08/10 06:57:37;;;;;;;6.03;4.30;;;21.50;90.80;;;;;;5127717;27;20221;-41
2022/08/10 07:00:06;;;;;;;4.65;4.20;;;21.50;90.80;;;;;;5114270;27;20235;-42
2022/08/10 07:02:53;;;;;;;8.55;4.22;;;21.50;90.70;;;;;;5091542;27;20708;-40
2022/08/10 07:05:25;;;;;;;5.13;4.18;;;21.60;90.90;;;;;;5111376;27;20636;-40
2022/08/10 07:07:59;;;;;;;4.63;3.15;;;21.60;90.70;;;;;;5121011;27;20202;-41
2022/08/10 07:10:33;;;;;;;5.93;4.32;;;21.70;91.00;;;;;;5122863;27;20208;-43
2022/08/10 07:13:14;;;;;;;5.15;4.00;;;21.70;91.00;;;;;;5109028;27;20194;-44
2022/08/10 07:16:04;;;;;;;7.05;4.88;;;21.70;90.90;;;;;;5108099;28;20191;-43
2022/08/10 07:18:35;;;;;;;5.25;4.15;;;21.80;91.00;;;;;;5108637;27;20195;-43
2022/08/10 07:21:04;;;;;;;6.45;4.28;;;21.80;91.00;;;;;;5107158;27;20210;-43
2022/08/10 07:23:33;;;;;;;7.55;4.60;;;21.80;91.10;;;;;;5120505;27;20230;-43
2022/08/10 07:26:22;;;;;;;5.40;3.80;;;21.90;91.10;;;;;;5107916;28;20679;-43
2022/08/10 07:28:51;;;;;;;5.88;4.45;;;21.90;91.20;;;;;;5090182;28;20641;-43
2022/08/10 07:31:20;;;;;;;6.35;3.97;;;21.90;91.00;;;;;;5117105;27;20244;-44
2022/08/10 07:34:09;;;;;;;6.45;4.38;;;21.90;91.10;;;;;;5111432;27;20204;-44
2022/08/10 07:36:39;;;;;;;9.30;4.45;;;22.00;91.30;;;;;;5089941;28;20206;-44
2022/08/10 07:39:11;;;;;;;4.88;3.50;;;22.00;91.30;;;;;;5121283;27;20246;-50
2022/08/10 07:41:45;;;;;;;11.50;5.32;;;22.10;91.30;;;;;;5109695;28;20275;-52
2022/08/10 07:44:13;;;;;;;8.23;4.40;;;22.20;91.90;;;;;;5090323;28;20214;-51
2022/08/10 07:46:45;;;;;;;6.03;4.13;;;22.20;91.80;;;;;;5113583;27;20215;-52
2022/08/10 07:49:22;;;;;;;5.43;3.65;;;22.20;91.70;;;;;;5118913;28;20192;-50
2022/08/10 07:51:51;;;;;;;4.18;3.42;;;22.20;91.60;;;;;;5081074;28;20235;-50
2022/08/10 07:54:26;;;;;;;4.30;3.50;;;22.30;91.40;;;;;;5114420;28;20337;-50
2022/08/10 07:57:00;;;;;;;6.25;3.55;;;22.50;91.60;;;;;;5118492;27;20282;-51
2022/08/10 07:59:36;;;;;;;6.93;3.63;;;22.50;91.50;;;;;;5122469;27;20325;-52
2022/08/10 08:02:12;;;;;;;6.43;4.00;;;22.60;91.50;;;;;;5117899;27;20213;-51
2022/08/10 08:04:42;;;;;;;4.57;3.67;;;22.60;91.50;;;;;;5120400;27;20593;-51
2022/08/10 08:07:11;;;;;;;6.30;4.10;;;22.70;91.50;;;;;;5129088;27;20209;-51
2022/08/10 08:09:40;;;;;;;5.88;4.28;;;22.80;91.50;;;;;;5123848;27;20213;-51
2022/08/10 08:12:29;;;;;;;5.38;3.80;;;22.80;91.60;;;;;;5119351;27;20289;-44
2022/08/10 08:15:09;;;;;;;4.90;3.30;;;22.80;91.60;;;;;;5112717;27;20246;-44
2022/08/10 08:18:01;;;;;;;5.05;2.95;;;22.90;91.60;;;;;;5100440;27;20251;-44
2022/08/10 08:20:32;;;;;;;5.07;3.58;;;23.00;91.60;;;;;;5127908;27;20206;-44
2022/08/10 08:23:03;;;;;;;5.50;3.30;;;23.10;91.60;;;;;;5113345;27;20250;-44
2022/08/10 08:25:51;;;;;;;8.52;3.38;;;23.20;91.60;;;;;;5118286;27;20318;-44
2022/08/10 08:28:19;;;;;;;4.63;3.58;;;23.20;91.60;;;;;;5114870;27;20241;-46
2022/08/10 08:30:47;;;;;;;4.88;2.90;;;23.30;91.70;;;;;;5092774;28;20585;-44
2022/08/10 08:33:16;;;;;;;7.50;3.47;;;23.40;91.70;;;;;;5109170;28;20691;-44
2022/08/10 08:35:47;;;;;;;5.95;3.40;;;23.40;91.60;;;;;;5115487;27;20506;-44
2022/08/10 08:38:16;;;;;;;7.43;3.58;;;23.50;91.70;;;;;;5111913;27;20303;-44
2022/08/10 08:41:19;;;;;;;6.70;3.22;;;23.50;91.80;;;;;;5128211;27;20317;-44
2022/08/10 08:44:13;;;;;;;3.38;2.80;;;23.60;91.70;;;;;;5091822;27;20194;-44
2022/08/10 08:47:12;;;;;;;5.85;3.70;;;23.70;91.80;;;;;;5086533;27;20988;-44
2022/08/10 08:50:03;;;;;;;7.32;3.90;;;23.70;91.80;;;;;;5124147;27;20194;-44
2022/08/10 08:52:54;;;;;;;4.28;2.80;;;23.80;91.70;;;;;;5129433;27;20567;-44
2022/08/10 08:55:45;;;;;;;4.18;2.92;;;23.90;91.60;;;;;;5130163;27;20213;-44
2022/08/10 08:59:04;;;;;;;6.93;3.03;;;23.90;91.60;;;;;;5113725;27;20775;-44
2022/08/10 09:02:05;;;;;;;5.90;3.40;;;24.00;91.60;;;;;;5116536;27;20205;-44
2022/08/10 09:05:02;;;;;;;3.20;2.67;;;24.10;91.50;;;;;;5104132;27;20304;-44
2022/08/10 09:08:00;;;;;;;4.53;2.88;;;24.10;91.50;;;;;;5126753;27;20262;-44
2022/08/10 09:10:49;;;;;;;6.70;3.83;;;24.20;91.20;;;;;;5110756;27;20310;-44
2022/08/10 09:13:35;;;;;;;6.13;3.13;;;24.30;91.40;;;;;;5116285;27;20613;-43
2022/08/10 09:16:24;;;;;;;8.00;3.35;;;24.30;91.30;;;;;;5129520;27;20202;-43
2022/08/10 09:19:16;;;;;;;4.00;2.85;;;24.40;91.40;;;;;;5110670;27;20213;-43
2022/08/10 09:22:14;;;;;;;6.43;2.80;;;24.50;91.30;;;;;;5110701;27;20197;-43
2022/08/10 09:25:27;;;;;;;4.47;2.88;;;24.60;91.40;;;;;;5129017;27;20213;-43
2022/08/10 09:28:06;;;;;;;4.57;2.85;;;24.70;91.40;;;;;;5116748;27;20206;-44
2022/08/10 09:30:52;;;;;;;4.25;2.80;;;24.70;91.20;;;;;;5095822;27;20198;-43
2022/08/10 09:34:06;;;;;;;4.32;2.60;;;24.80;91.00;;;;;;5121212;27;20209;-50
2022/08/10 09:37:17;;;;;;;3.67;2.75;;;24.90;91.30;;;;;;5114407;27;20208;-50
2022/08/10 09:39:56;;;;;;;4.93;2.83;;;24.90;91.40;;;;;;5129445;27;20205;-52
2022/08/10 09:42:59;;;;;;;3.97;3.00;;;25.10;91.40;;;;;;5122226;27;20685;-50
2022/08/10 09:46:05;;;;;;;5.88;2.92;;;25.20;91.20;;;;;;5112926;27;20598;-50
2022/08/10 09:48:51;;;;;;;3.78;2.60;;;25.20;91.40;;;;;;5118212;27;20225;-49
2022/08/10 09:51:39;;;;;;;6.32;2.70;;;25.30;91.50;;;;;;5117986;27;20280;-50
2022/08/10 09:54:27;;;;;;;3.97;2.35;;;25.40;91.30;;;;;;5116705;27;20671;-52
2022/08/10 09:57:23;;;;;;;2.67;2.25;;;25.50;91.00;;;;;;5097789;27;20572;-51
2022/08/10 10:00:14;;;;;;;3.60;2.45;;;25.60;90.90;;;;;;5118108;27;20212;-52
2022/08/10 10:03:15;;;;;;;8.25;2.90;;;25.70;90.80;;;;;;5118279;27;20217;-50
2022/08/10 10:05:53;;;;;;;5.15;2.55;;;25.80;90.80;;;;;;5109402;27;20223;-51
2022/08/10 10:08:58;;;;;;;5.03;2.40;;;25.80;90.80;;;;;;5119676;27;20267;-43
2022/08/10 10:12:05;;;;;;;5.75;2.50;;;25.90;90.50;;;;;;5123415;27;20197;-43
2022/08/10 10:15:19;;;;;;;3.65;2.33;;;25.90;90.80;;;;;;5128825;27;20205;-43
2022/08/10 10:18:06;;;;;;;4.40;2.40;;;26.00;90.50;;;;;;5108137;27;20194;-43
2022/08/10 10:20:53;;;;;;;6.15;2.70;;;26.10;90.90;;;;;;5117441;27;20744;-43
2022/08/10 10:23:51;;;;;;;2.78;2.35;;;26.10;91.10;;;;;;5109469;27;20208;-43
2022/08/10 10:27:17;;;;;;;2.42;2.17;;;26.20;90.10;;;;;;5108053;28;20194;-43
2022/08/10 10:30:00;;;;;;;3.58;2.67;;;26.30;89.80;;;;;;5113617;27;20306;-44
2022/08/10 10:32:48;;;;;;;5.60;2.38;;;26.30;90.50;;;;;;5118409;27;20207;-43
2022/08/10 10:35:28;;;;;;;4.13;2.30;;;26.40;90.50;;;;;;5124822;27;20289;-43
2022/08/10 10:37:57;;;;;;;3.78;2.22;;;26.50;90.10;;;;;;5112634;27;20210;-43
2022/08/10 10:40:47;;;;;;;3.38;2.45;;;26.50;90.50;;;;;;5111259;27;20216;-43
2022/08/10 10:43:46;;;;;;;4.43;2.38;;;26.70;90.40;;;;;;5119758;27;20202;-43
2022/08/10 10:46:45;;;;;;;2.88;2.40;;;26.70;90.40;;;;;;5097249;27;20692;-43
2022/08/10 10:49:21;;;;;;;6.07;2.45;;;26.80;90.30;;;;;;5020500;28;20209;-42
2022/08/10 10:52:10;;;;;;;2.97;2.13;;;26.90;90.20;;;;;;5122000;27;20197;-42
2022/08/10 10:54:46;;;;;;;4.90;2.40;;;26.90;89.80;;;;;;5128631;27;20217;-42
2022/08/10 10:57:46;;;;;;;4.57;2.65;;;27.00;90.10;;;;;;5104803;27;20296;-42
2022/08/10 11:00:40;;;;;;;8.25;2.67;;;27.10;89.20;;;;;;5113283;27;20287;-42
2022/08/10 11:03:20;;;;;;;4.43;2.40;;;27.10;88.80;;;;;;5109038;27;20210;-42
2022/08/10 11:06:08;;;;;;;6.60;2.45;;;27.20;88.50;;;;;;5113160;27;20225;-45
2022/08/10 11:08:43;;;;;;;3.00;2.33;;;27.30;88.80;;;;;;5108356;28;20190;-42
2022/08/10 11:11:24;;;;;;;3.42;2.10;;;27.30;89.70;;;;;;5115603;27;20197;-43
2022/08/10 11:14:15;;;;;;;3.30;2.10;;;27.40;90.00;;;;;;5126776;27;20216;-43
2022/08/10 11:17:22;;;;;;;4.35;2.60;;;27.50;89.20;;;;;;5120591;27;20225;-40
2022/08/10 11:19:55;;;;;;;5.07;3.00;;;27.60;89.00;;;;;;5118924;27;20190;-48
2022/08/10 11:22:38;;;;;;;6.35;3.00;;;27.60;87.80;;;;;;5123525;27;20670;-49
2022/08/10 11:25:27;;;;;;;6.13;2.53;;;27.70;86.20;;;;;;5121577;27;20279;-47
2022/08/10 11:28:15;;;;;;;4.18;2.72;;;27.80;87.00;;;;;;5112139;27;20191;-49
2022/08/10 11:30:54;;;;;;;4.40;2.33;;;27.80;88.10;;;;;;5119264;27;20209;-48
2022/08/10 11:33:48;;;;;;;5.15;2.47;;;27.90;87.90;;;;;;5110181;28;20960;-49
2022/08/10 11:37:14;;;;;;;3.95;2.55;;;27.90;88.20;;;;;;5108949;27;20202;-49
2022/08/10 11:39:54;;;;;;;4.82;2.40;;;28.00;88.50;;;;;;5101101;28;20208;-49
2022/08/10 11:42:54;;;;;;;7.80;2.78;;;28.10;88.40;;;;;;5113610;27;20201;-49
2022/08/10 11:45:33;;;;;;;3.67;2.28;;;28.10;88.10;;;;;;5048800;27;20296;-49
2022/08/10 11:48:31;;;;;;;3.03;2.20;;;28.20;87.40;;;;;;5130055;27;20261;-48
2022/08/10 11:51:26;;;;;;;6.13;2.42;;;28.20;87.10;;;;;;5125209;27;20221;-49
2022/08/10 11:54:04;;;;;;;9.30;2.50;;;28.30;87.90;;;;;;5111726;28;20205;-50
2022/08/10 11:56:42;;;;;;;2.85;2.03;;;28.30;85.60;;;;;;5109876;27;20683;-49
2022/08/10 12:01:57;;;;;;;5.25;2.20;;;28.50;81.60;;;;;;5103700;28;20270;-48
2022/08/10 12:04:27;;;;;;;4.80;2.38;;;28.50;84.40;;;;;;5126812;28;20292;-49
2022/08/10 12:06:56;;;;;;;3.10;2.33;;;28.50;84.40;;;;;;5108354;28;20312;-48
2022/08/10 12:09:30;;;;;;;5.45;2.33;;;28.60;84.30;;;;;;5087894;28;20206;-50
2022/08/10 12:12:17;;;;;;;2.72;2.00;;;28.60;84.00;;;;;;5123414;28;20213;-48
2022/08/10 12:15:09;;;;;;;2.58;1.90;;;28.70;82.00;;;;;;5127337;28;20591;-48
2022/08/10 12:17:43;;;;;;;2.20;1.95;;;28.70;84.50;;;;;;5127553;28;20193;-48
2022/08/10 12:20:30;;;;;;;3.47;2.22;;;28.70;85.00;;;;;;5123412;28;20208;-49
2022/08/10 12:23:08;;;;;;;2.63;2.42;;;28.80;84.40;;;;;;5117451;28;20210;-42
2022/08/10 12:25:50;;;;;;;4.13;2.60;;;28.80;84.80;;;;;;5123058;28;20308;-42
2022/08/10 12:28:48;;;;;;;5.03;2.42;;;28.90;81.40;;;;;;5126903;28;20712;-42
2022/08/10 12:31:32;;;;;;;3.30;2.20;;;29.00;82.20;;;;;;5109814;28;20320;-49
2022/08/10 12:34:13;;;;;;;3.97;2.70;;;29.00;81.80;;;;;;5128125;28;20197;-48
2022/08/10 12:36:46;;;;;;;3.15;2.03;;;29.10;81.60;;;;;;5126214;28;20371;-48
2022/08/10 12:39:23;;;;;;;6.18;2.30;;;29.10;82.80;;;;;;5097789;28;20206;-47
2022/08/10 12:42:16;;;;;;;5.75;2.17;;;29.20;81.70;;;;;;5113384;28;20222;-47
2022/08/10 12:45:13;;;;;;;4.35;2.50;;;29.20;83.50;;;;;;5129921;27;20217;-47
2022/08/10 12:48:26;;;;;;;4.40;2.38;;;29.30;80.50;;;;;;5107602;27;20197;-49
2022/08/10 12:51:13;;;;;;;7.30;2.33;;;29.30;76.30;;;;;;5118085;27;20210;-48
2022/08/10 12:53:43;;;;;;;3.65;2.50;;;29.40;81.10;;;;;;5131811;27;20204;-48
2022/08/10 12:56:25;;;;;;;2.22;2.00;;;29.50;80.60;;;;;;5121825;27;20247;-48
2022/08/10 12:58:54;;;;;;;4.63;2.70;;;29.50;81.30;;;;;;5093733;27;20287;-48
2022/08/10 13:01:32;;;;;;;4.07;2.40;;;29.60;81.60;;;;;;5111676;27;20205;-48
2022/08/10 13:04:35;;;;;;;3.50;2.40;;;29.60;82.00;;;;;;5110931;28;20202;-49
2022/08/10 13:07:04;;;;;;;4.15;2.50;;;29.70;80.70;;;;;;5114298;27;20759;-49
2022/08/10 13:09:32;;;;;;;3.05;2.63;;;29.70;76.90;;;;;;5099294;27;20202;-49
2022/08/10 13:12:23;;;;;;;4.35;2.50;;;29.70;77.60;;;;;;5121970;27;20631;-49
2022/08/10 13:15:18;;;;;;;7.05;2.42;;;29.80;80.30;;;;;;5124376;27;20686;-49
2022/08/10 13:18:09;;;;;;;3.58;2.08;;;29.90;79.90;;;;;;5112256;27;20206;-49
2022/08/10 13:20:50;;;;;;;4.75;2.08;;;29.90;78.20;;;;;;5093985;27;20194;-49
2022/08/10 13:23:26;;;;;;;3.10;1.88;;;30.00;78.90;;;;;;5123420;27;20214;-49
2022/08/10 13:25:57;;;;;;;3.58;1.92;;;30.00;81.30;;;;;;5109670;28;20218;-49
2022/08/10 13:28:36;;;;;;;2.50;2.00;;;30.00;80.00;;;;;;5114918;27;20213;-49
2022/08/10 13:31:11;;;;;;;5.43;2.20;;;30.10;80.30;;;;;;5108593;27;20237;-48
2022/08/10 13:33:49;;;;;;;3.13;2.20;;;30.10;80.10;;;;;;5126727;27;20299;-48
2022/08/10 13:36:39;;;;;;;3.90;1.95;;;30.20;80.90;;;;;;5109490;28;20210;-49
2022/08/10 13:39:07;;;;;;;2.95;2.25;;;30.30;80.10;;;;;;5108885;28;20222;-49
2022/08/10 13:41:39;;;;;;;1.98;1.80;;;30.30;78.70;;;;;;5080139;27;20645;-47
2022/08/10 13:44:13;;;;;;;3.90;1.90;;;30.30;78.30;;;;;;5130031;27;20636;-48
2022/08/10 13:46:49;;;;;;;2.75;2.20;;;30.30;78.80;;;;;;5139051;27;20259;-41
2022/08/10 13:49:19;;;;;;;4.60;2.03;;;30.40;79.80;;;;;;5129417;27;20251;-40
2022/08/10 13:51:47;;;;;;;1.92;1.77;;;30.40;78.50;;;;;;5090464;27;20198;-41
2022/08/10 13:54:27;;;;;;;3.58;2.30;;;30.40;78.20;;;;;;5122540;27;20300;-41
2022/08/10 13:56:56;;;;;;;4.05;2.10;;;30.50;75.40;;;;;;5090072;28;20211;-40
2022/08/10 13:59:28;;;;;;;5.82;2.67;;;30.50;77.60;;;;;;5129420;27;20263;-47
2022/08/10 14:02:24;;;;;;;3.15;2.30;;;30.60;77.70;;;;;;5129256;27;20307;-48